sensor_id;sensor_type;location;lat;lon;timestamp;pressure;altitude;pressure_sealevel;temperature;humidity
62011;BME280;47967;51.756;10.174;2022-07-03T00:02:34;99979.94;;;13.73;83.02
62011;BME280;47967;51.756;10.174;2022-07-03T00:06:37;99982.66;;;13.67;83.70
62011;BME280;47967;51.756;10.174;2022-07-03T00:10:40;99976.81;;;13.70;84.38
62011;BME280;47967;51.756;10.174;2022-07-03T00:14:43;99977.41;;;13.79;84.15
62011;BME280;47967;51.756;10.174;2022-07-03T00:18:46;99967.91;;;14.01;83.86
62011;BME280;47967;51.756;10.174;2022-07-03T00:22:50;99962.41;;;14.15;82.83
62011;BME280;47967;51.756;10.174;2022-07-03T00:26:55;99956.47;;;14.24;82.76
62011;BME280;47967;51.756;10.174;2022-07-03T00:30:59;99963.34;;;14.27;82.62
62011;BME280;47967;51.756;10.174;2022-07-03T00:35:02;99967.75;;;14.21;82.83
62011;BME280;47967;51.756;10.174;2022-07-03T00:39:05;99962.50;;;14.27;83.04
62011;BME280;47967;51.756;10.174;2022-07-03T00:43:09;99963.13;;;14.29;81.91
62011;BME280;47967;51.756;10.174;2022-07-03T00:47:12;99965.59;;;14.30;81.47
62011;BME280;47967;51.756;10.174;2022-07-03T00:51:15;99958.22;;;14.12;82.50
62011;BME280;47967;51.756;10.174;2022-07-03T00:55:22;99952.66;;;14.00;83.59
62011;BME280;47967;51.756;10.174;2022-07-03T00:59:26;99956.59;;;14.04;83.56
62011;BME280;47967;51.756;10.174;2022-07-03T01:03:32;99956.78;;;14.09;83.49
62011;BME280;47967;51.756;10.174;2022-07-03T01:07:41;99954.53;;;14.00;84.03
62011;BME280;47967;51.756;10.174;2022-07-03T01:11:48;99959.84;;;13.88;84.59
62011;BME280;47967;51.756;10.174;2022-07-03T01:16:04;99964.09;;;13.70;85.59
62011;BME280;47967;51.756;10.174;2022-07-03T01:20:07;99949.97;;;13.55;86.42
62011;BME280;47967;51.756;10.174;2022-07-03T01:24:23;99952.53;;;13.43;86.80
62011;BME280;47967;51.756;10.174;2022-07-03T01:28:36;99947.97;;;13.23;87.52
62011;BME280;47967;51.756;10.174;2022-07-03T01:32:43;99952.19;;;13.12;87.74
62011;BME280;47967;51.756;10.174;2022-07-03T01:36:47;99943.44;;;12.97;88.26
62011;BME280;47967;51.756;10.174;2022-07-03T01:40:50;99942.03;;;12.88;88.45
62011;BME280;47967;51.756;10.174;2022-07-03T01:44:59;99942.06;;;12.74;89.17
62011;BME280;47967;51.756;10.174;2022-07-03T01:49:02;99938.94;;;12.71;89.44
62011;BME280;47967;51.756;10.174;2022-07-03T01:53:09;99918.50;;;12.68;89.23
62011;BME280;47967;51.756;10.174;2022-07-03T01:57:12;99920.19;;;12.62;88.81
62011;BME280;47967;51.756;10.174;2022-07-03T02:01:19;99916.84;;;12.47;88.51
62011;BME280;47967;51.756;10.174;2022-07-03T02:05:29;99925.19;;;12.39;88.60
62011;BME280;47967;51.756;10.174;2022-07-03T02:09:36;99926.84;;;12.40;88.12
62011;BME280;47967;51.756;10.174;2022-07-03T02:13:55;99924.78;;;12.28;87.90
62011;BME280;47967;51.756;10.174;2022-07-03T02:18:11;99927.47;;;12.28;87.70
62011;BME280;47967;51.756;10.174;2022-07-03T02:22:19;99926.66;;;12.35;87.83
62011;BME280;47967;51.756;10.174;2022-07-03T02:26:27;99927.28;;;12.37;87.82
62011;BME280;47967;51.756;10.174;2022-07-03T02:30:35;99935.19;;;12.52;87.67
62011;BME280;47967;51.756;10.174;2022-07-03T02:34:44;99932.47;;;12.65;87.87
62011;BME280;47967;51.756;10.174;2022-07-03T02:38:52;99936.41;;;12.76;87.76
62011;BME280;47967;51.756;10.174;2022-07-03T02:43:02;99940.16;;;12.75;87.53
62011;BME280;47967;51.756;10.174;2022-07-03T02:47:14;99933.09;;;12.60;88.22
62011;BME280;47967;51.756;10.174;2022-07-03T02:51:32;99933.28;;;12.52;88.47
62011;BME280;47967;51.756;10.174;2022-07-03T02:55:40;99928.31;;;12.42;89.04
62011;BME280;47967;51.756;10.174;2022-07-03T02:59:53;99925.81;;;12.27;89.62
62011;BME280;47967;51.756;10.174;2022-07-03T03:04:07;99928.94;;;12.24;89.91
62011;BME280;47967;51.756;10.174;2022-07-03T03:08:23;99918.31;;;12.16;89.67
62011;BME280;47967;51.756;10.174;2022-07-03T03:12:31;99917.69;;;12.14;89.61
62011;BME280;47967;51.756;10.174;2022-07-03T03:16:44;99917.69;;;12.07;89.62
62011;BME280;47967;51.756;10.174;2022-07-03T03:20:49;99917.03;;;11.98;90.02
62011;BME280;47967;51.756;10.174;2022-07-03T03:24:54;99914.50;;;11.83;90.33
62011;BME280;47967;51.756;10.174;2022-07-03T03:28:58;99913.84;;;11.75;91.66
62011;BME280;47967;51.756;10.174;2022-07-03T03:33:01;99916.97;;;11.85;91.91
62011;BME280;47967;51.756;10.174;2022-07-03T03:37:05;99913.72;;;11.96;91.41
62011;BME280;47967;51.756;10.174;2022-07-03T03:41:09;99916.84;;;12.00;90.46
62011;BME280;47967;51.756;10.174;2022-07-03T03:45:18;99912.06;;;12.09;89.76
62011;BME280;47967;51.756;10.174;2022-07-03T03:49:21;99921.63;;;12.18;89.44
62011;BME280;47967;51.756;10.174;2022-07-03T03:53:25;99908.72;;;12.07;88.46
62011;BME280;47967;51.756;10.174;2022-07-03T03:57:29;99918.72;;;12.13;88.89
62011;BME280;47967;51.756;10.174;2022-07-03T04:01:32;99917.69;;;12.14;89.08
62011;BME280;47967;51.756;10.174;2022-07-03T04:05:34;99916.88;;;12.27;89.25
62011;BME280;47967;51.756;10.174;2022-07-03T04:09:37;99905.22;;;12.33;89.22
62011;BME280;47967;51.756;10.174;2022-07-03T04:13:42;99915.00;;;12.47;88.79
62011;BME280;47967;51.756;10.174;2022-07-03T04:17:44;99907.69;;;12.61;88.59
62011;BME280;47967;51.756;10.174;2022-07-03T04:21:47;99907.47;;;12.76;88.66
62011;BME280;47967;51.756;10.174;2022-07-03T04:25:50;99897.59;;;13.09;87.87
62011;BME280;47967;51.756;10.174;2022-07-03T04:29:54;99893.50;;;13.45;86.03
62011;BME280;47967;51.756;10.174;2022-07-03T04:33:56;99898.38;;;13.75;84.74
62011;BME280;47967;51.756;10.174;2022-07-03T04:37:59;99898.44;;;13.93;83.58
62011;BME280;47967;51.756;10.174;2022-07-03T04:42:02;99902.91;;;14.13;84.11
62011;BME280;47967;51.756;10.174;2022-07-03T04:46:06;99896.78;;;14.24;83.84
62011;BME280;47967;51.756;10.174;2022-07-03T04:50:09;99893.38;;;14.29;84.16
62011;BME280;47967;51.756;10.174;2022-07-03T04:54:11;99905.63;;;14.38;85.07
62011;BME280;47967;51.756;10.174;2022-07-03T04:58:14;99905.56;;;14.45;85.32
62011;BME280;47967;51.756;10.174;2022-07-03T05:02:18;99907.19;;;14.53;85.36
62011;BME280;47967;51.756;10.174;2022-07-03T05:06:20;99908.78;;;14.61;85.11
62011;BME280;47967;51.756;10.174;2022-07-03T05:10:23;99912.44;;;14.73;84.43
62011;BME280;47967;51.756;10.174;2022-07-03T05:14:26;99906.22;;;14.91;83.74
62011;BME280;47967;51.756;10.174;2022-07-03T05:18:29;99911.44;;;15.11;82.71
62011;BME280;47967;51.756;10.174;2022-07-03T05:22:32;99910.94;;;15.33;81.44
62011;BME280;47967;51.756;10.174;2022-07-03T05:26:34;99916.38;;;15.51;79.95
62011;BME280;47967;51.756;10.174;2022-07-03T05:30:37;99917.53;;;15.74;78.94
62011;BME280;47967;51.756;10.174;2022-07-03T05:34:41;99918.59;;;15.92;76.87
62011;BME280;47967;51.756;10.174;2022-07-03T05:38:44;99907.16;;;16.13;76.08
62011;BME280;47967;51.756;10.174;2022-07-03T05:43:04;99911.69;;;16.31;75.59
62011;BME280;47967;51.756;10.174;2022-07-03T05:47:07;99907.34;;;16.54;75.11
62011;BME280;47967;51.756;10.174;2022-07-03T05:51:10;99905.91;;;16.75;74.13
62011;BME280;47967;51.756;10.174;2022-07-03T05:55:13;99901.63;;;16.91;73.57
62011;BME280;47967;51.756;10.174;2022-07-03T05:59:16;99907.31;;;17.13;72.72
62011;BME280;47967;51.756;10.174;2022-07-03T06:03:18;99909.41;;;17.35;72.39
62011;BME280;47967;51.756;10.174;2022-07-03T06:07:22;99909.00;;;17.55;71.85
62011;BME280;47967;51.756;10.174;2022-07-03T06:11:25;99907.56;;;17.82;71.17
62011;BME280;47967;51.756;10.174;2022-07-03T06:15:27;99899.28;;;18.05;69.80
62011;BME280;47967;51.756;10.174;2022-07-03T06:19:30;99906.59;;;18.34;68.93
62011;BME280;47967;51.756;10.174;2022-07-03T06:23:34;99902.91;;;18.62;67.56
62011;BME280;47967;51.756;10.174;2022-07-03T06:27:47;99893.56;;;18.92;67.09
62011;BME280;47967;51.756;10.174;2022-07-03T06:31:49;99906.22;;;19.20;66.80
62011;BME280;47967;51.756;10.174;2022-07-03T06:35:52;99904.44;;;19.54;64.54
62011;BME280;47967;51.756;10.174;2022-07-03T06:39:56;99905.63;;;19.85;62.58
62011;BME280;47967;51.756;10.174;2022-07-03T06:43:58;99896.28;;;20.13;61.56
62011;BME280;47967;51.756;10.174;2022-07-03T06:48:01;99894.63;;;20.45;59.20
62011;BME280;47967;51.756;10.174;2022-07-03T06:52:04;99898.47;;;20.82;56.03
62011;BME280;47967;51.756;10.174;2022-07-03T06:56:08;99892.50;;;20.90;56.04
62011;BME280;47967;51.756;10.174;2022-07-03T07:00:11;99900.00;;;21.10;54.77
62011;BME280;47967;51.756;10.174;2022-07-03T07:04:14;99902.78;;;21.20;53.71
62011;BME280;47967;51.756;10.174;2022-07-03T07:08:17;99901.75;;;21.37;53.81
62011;BME280;47967;51.756;10.174;2022-07-03T07:12:21;99904.28;;;21.54;52.03
62011;BME280;47967;51.756;10.174;2022-07-03T07:16:23;99890.63;;;21.74;52.51
62011;BME280;47967;51.756;10.174;2022-07-03T07:20:26;99898.06;;;21.95;51.83
62011;BME280;47967;51.756;10.174;2022-07-03T07:24:29;99898.38;;;22.29;51.89
62011;BME280;47967;51.756;10.174;2022-07-03T07:28:33;99901.69;;;22.52;51.41
62011;BME280;47967;51.756;10.174;2022-07-03T07:32:36;99898.09;;;22.62;50.85
62011;BME280;47967;51.756;10.174;2022-07-03T07:36:39;99890.94;;;22.35;51.24
62011;BME280;47967;51.756;10.174;2022-07-03T07:40:41;99890.97;;;22.50;51.26
62011;BME280;47967;51.756;10.174;2022-07-03T07:44:46;99887.66;;;22.64;51.06
62011;BME280;47967;51.756;10.174;2022-07-03T07:48:48;99885.66;;;22.85;50.30
62011;BME280;47967;51.756;10.174;2022-07-03T07:52:51;99884.25;;;22.98;50.54
62011;BME280;47967;51.756;10.174;2022-07-03T07:56:53;99882.84;;;23.11;50.06
62011;BME280;47967;51.756;10.174;2022-07-03T08:00:57;99887.53;;;23.21;49.73
62011;BME280;47967;51.756;10.174;2022-07-03T08:05:18;99895.44;;;23.32;48.83
62011;BME280;47967;51.756;10.174;2022-07-03T08:09:39;99901.47;;;23.45;48.26
62011;BME280;47967;51.756;10.174;2022-07-03T08:13:42;99904.97;;;23.61;48.24
62011;BME280;47967;51.756;10.174;2022-07-03T08:17:48;99893.34;;;23.64;48.15
62011;BME280;47967;51.756;10.174;2022-07-03T08:21:51;99890.78;;;23.83;47.68
62011;BME280;47967;51.756;10.174;2022-07-03T08:25:53;99891.81;;;23.97;47.40
62011;BME280;47967;51.756;10.174;2022-07-03T08:29:56;99888.66;;;24.09;47.79
62011;BME280;47967;51.756;10.174;2022-07-03T08:34:00;99883.63;;;24.22;47.56
62011;BME280;47967;51.756;10.174;2022-07-03T08:38:03;99889.66;;;24.24;47.21
62011;BME280;47967;51.756;10.174;2022-07-03T08:42:05;99885.00;;;24.54;46.16
62011;BME280;47967;51.756;10.174;2022-07-03T08:46:10;99883.22;;;24.68;45.12
62011;BME280;47967;51.756;10.174;2022-07-03T08:50:15;99876.53;;;24.74;45.59
62011;BME280;47967;51.756;10.174;2022-07-03T08:54:19;99879.19;;;24.85;46.53
62011;BME280;47967;51.756;10.174;2022-07-03T08:58:21;99876.75;;;25.02;45.98
62011;BME280;47967;51.756;10.174;2022-07-03T09:02:25;99876.09;;;25.35;45.60
62011;BME280;47967;51.756;10.174;2022-07-03T09:06:31;99874.69;;;25.37;45.33
62011;BME280;47967;51.756;10.174;2022-07-03T09:10:35;99870.34;;;25.31;46.03
62011;BME280;47967;51.756;10.174;2022-07-03T09:14:38;99871.34;;;25.60;44.75
62011;BME280;47967;51.756;10.174;2022-07-03T09:18:44;99861.81;;;25.71;44.72
62011;BME280;47967;51.756;10.174;2022-07-03T09:22:49;99865.84;;;25.79;44.66
62011;BME280;47967;51.756;10.174;2022-07-03T09:26:52;99855.66;;;25.93;43.92
62011;BME280;47967;51.756;10.174;2022-07-03T09:30:59;99849.44;;;26.01;44.74
62011;BME280;47967;51.756;10.174;2022-07-03T09:35:16;99848.28;;;26.08;41.96
62011;BME280;47967;51.756;10.174;2022-07-03T09:39:22;99844.41;;;26.23;41.41
62011;BME280;47967;51.756;10.174;2022-07-03T09:43:28;99849.34;;;26.26;40.50
62011;BME280;47967;51.756;10.174;2022-07-03T09:47:31;99838.72;;;26.47;41.01
62011;BME280;47967;51.756;10.174;2022-07-03T09:51:34;99844.59;;;26.59;41.52
62011;BME280;47967;51.756;10.174;2022-07-03T09:55:38;99853.34;;;26.80;40.72
62011;BME280;47967;51.756;10.174;2022-07-03T09:59:41;99834.47;;;26.96;40.63
62011;BME280;47967;51.756;10.174;2022-07-03T10:03:43;99848.53;;;27.14;40.42
62011;BME280;47967;51.756;10.174;2022-07-03T10:07:49;99846.53;;;27.42;39.80
62011;BME280;47967;51.756;10.174;2022-07-03T10:11:56;99838.09;;;27.61;39.76
62011;BME280;47967;51.756;10.174;2022-07-03T10:15:59;99844.19;;;27.95;38.73
62011;BME280;47967;51.756;10.174;2022-07-03T10:20:03;99842.94;;;28.01;37.51
62011;BME280;47967;51.756;10.174;2022-07-03T10:24:06;99847.84;;;28.27;37.81
62011;BME280;47967;51.756;10.174;2022-07-03T10:28:12;99829.69;;;28.43;37.57
62011;BME280;47967;51.756;10.174;2022-07-03T10:32:15;99834.44;;;28.43;37.34
62011;BME280;47967;51.756;10.174;2022-07-03T10:36:19;99831.13;;;28.09;37.63
62011;BME280;47967;51.756;10.174;2022-07-03T10:40:29;99832.44;;;28.12;37.23
62011;BME280;47967;51.756;10.174;2022-07-03T10:45:04;99821.88;;;28.00;36.60
62011;BME280;47967;51.756;10.174;2022-07-03T10:49:08;99835.63;;;28.28;36.61
62011;BME280;47967;51.756;10.174;2022-07-03T10:53:29;99822.88;;;28.58;35.27
62011;BME280;47967;51.756;10.174;2022-07-03T10:57:32;99825.81;;;28.85;35.51
62011;BME280;47967;51.756;10.174;2022-07-03T11:01:36;99822.44;;;29.14;34.97
62011;BME280;47967;51.756;10.174;2022-07-03T11:05:39;99820.16;;;29.16;34.01
62011;BME280;47967;51.756;10.174;2022-07-03T11:09:41;99815.28;;;29.31;34.43
62011;BME280;47967;51.756;10.174;2022-07-03T11:18:31;99806.63;;;29.67;33.05
62011;BME280;47967;51.756;10.174;2022-07-03T11:22:44;99814.88;;;28.97;31.93
62011;BME280;47967;51.756;10.174;2022-07-03T11:27:16;99797.81;;;29.30;32.89
62011;BME280;47967;51.756;10.174;2022-07-03T11:31:21;99816.47;;;29.30;32.86
62011;BME280;47967;51.756;10.174;2022-07-03T11:35:45;99802.41;;;29.35;33.30
62011;BME280;47967;51.756;10.174;2022-07-03T11:39:54;99793.41;;;29.55;32.60
62011;BME280;47967;51.756;10.174;2022-07-03T11:44:00;99796.50;;;29.80;33.08
62011;BME280;47967;51.756;10.174;2022-07-03T11:48:06;99790.97;;;29.63;32.44
62011;BME280;47967;51.756;10.174;2022-07-03T11:52:31;99789.47;;;29.65;32.15
62011;BME280;47967;51.756;10.174;2022-07-03T11:56:35;99789.63;;;29.69;33.71
62011;BME280;47967;51.756;10.174;2022-07-03T12:00:40;99793.72;;;29.36;34.19
62011;BME280;47967;51.756;10.174;2022-07-03T12:04:43;99794.94;;;28.95;34.48
62011;BME280;47967;51.756;10.174;2022-07-03T12:08:47;99800.63;;;28.81;35.08
62011;BME280;47967;51.756;10.174;2022-07-03T12:12:50;99799.19;;;28.52;35.14
62011;BME280;47967;51.756;10.174;2022-07-03T12:16:52;99787.50;;;27.78;36.29
62011;BME280;47967;51.756;10.174;2022-07-03T12:21:03;99786.16;;;28.53;35.48
62011;BME280;47967;51.756;10.174;2022-07-03T12:25:09;99790.41;;;28.59;35.74
62011;BME280;47967;51.756;10.174;2022-07-03T12:29:14;99779.22;;;28.41;34.88
62011;BME280;47967;51.756;10.174;2022-07-03T12:33:17;99774.44;;;27.79;35.72
62011;BME280;47967;51.756;10.174;2022-07-03T12:37:31;99764.44;;;27.32;36.44
62011;BME280;47967;51.756;10.174;2022-07-03T12:41:35;99759.72;;;27.33;36.85
62011;BME280;47967;51.756;10.174;2022-07-03T12:45:38;99757.84;;;27.20;36.49
62011;BME280;47967;51.756;10.174;2022-07-03T12:49:41;99764.00;;;27.53;37.10
62011;BME280;47967;51.756;10.174;2022-07-03T12:53:54;99748.59;;;28.15;35.71
62011;BME280;47967;51.756;10.174;2022-07-03T12:58:15;99745.59;;;28.92;34.86
62011;BME280;47967;51.756;10.174;2022-07-03T13:02:36;99747.13;;;29.42;34.12
62011;BME280;47967;51.756;10.174;2022-07-03T13:06:39;99743.13;;;28.90;34.64
62011;BME280;47967;51.756;10.174;2022-07-03T13:10:42;99741.53;;;28.98;34.51
62011;BME280;47967;51.756;10.174;2022-07-03T13:14:58;99742.22;;;29.39;33.93
62011;BME280;47967;51.756;10.174;2022-07-03T13:19:01;99740.25;;;29.48;33.51
62011;BME280;47967;51.756;10.174;2022-07-03T13:23:05;99741.06;;;29.49;34.12
62011;BME280;47967;51.756;10.174;2022-07-03T13:27:08;99739.78;;;28.62;34.66
62011;BME280;47967;51.756;10.174;2022-07-03T13:31:12;99731.38;;;28.36;35.78
62011;BME280;47967;51.756;10.174;2022-07-03T13:35:15;99726.56;;;28.59;35.37
62011;BME280;47967;51.756;10.174;2022-07-03T13:39:18;99729.09;;;28.87;34.30
62011;BME280;47967;51.756;10.174;2022-07-03T13:43:20;99731.72;;;29.01;34.26
62011;BME280;47967;51.756;10.174;2022-07-03T13:47:24;99726.81;;;29.68;33.88
62011;BME280;47967;51.756;10.174;2022-07-03T13:51:27;99720.69;;;30.48;32.50
62011;BME280;47967;51.756;10.174;2022-07-03T13:55:30;99719.34;;;30.16;32.58
62011;BME280;47967;51.756;10.174;2022-07-03T13:59:32;99721.34;;;30.45;32.04
62011;BME280;47967;51.756;10.174;2022-07-03T14:03:36;99718.25;;;30.98;32.00
62011;BME280;47967;51.756;10.174;2022-07-03T14:07:39;99719.94;;;30.30;32.51
62011;BME280;47967;51.756;10.174;2022-07-03T14:11:41;99714.72;;;30.29;32.31
62011;BME280;47967;51.756;10.174;2022-07-03T14:15:44;99702.19;;;30.44;32.64
62011;BME280;47967;51.756;10.174;2022-07-03T14:19:48;99711.56;;;29.83;32.59
62011;BME280;47967;51.756;10.174;2022-07-03T14:23:51;99699.78;;;29.86;33.34
62011;BME280;47967;51.756;10.174;2022-07-03T14:27:53;99706.84;;;29.92;33.26
62011;BME280;47967;51.756;10.174;2022-07-03T14:32:14;99710.13;;;28.71;34.55
62011;BME280;47967;51.756;10.174;2022-07-03T14:36:34;99707.25;;;28.54;35.23
62011;BME280;47967;51.756;10.174;2022-07-03T14:40:45;99704.13;;;28.96;34.99
62011;BME280;47967;51.756;10.174;2022-07-03T14:44:48;99701.59;;;29.82;33.55
62011;BME280;47967;51.756;10.174;2022-07-03T14:48:51;99707.84;;;31.07;31.64
62011;BME280;47967;51.756;10.174;2022-07-03T14:52:55;99696.53;;;32.50;30.19
62011;BME280;47967;51.756;10.174;2022-07-03T14:56:58;99705.09;;;31.62;31.54
62011;BME280;47967;51.756;10.174;2022-07-03T15:01:06;99701.81;;;30.24;32.86
62011;BME280;47967;51.756;10.174;2022-07-03T15:05:11;99693.84;;;30.14;33.26
62011;BME280;47967;51.756;10.174;2022-07-03T15:09:22;99695.88;;;31.16;31.89
62011;BME280;47967;51.756;10.174;2022-07-03T15:13:30;99694.09;;;30.60;32.73
62011;BME280;47967;51.756;10.174;2022-07-03T15:17:34;99687.72;;;29.73;33.53
62011;BME280;47967;51.756;10.174;2022-07-03T15:21:38;99696.97;;;29.30;34.44
62011;BME280;47967;51.756;10.174;2022-07-03T15:25:43;99692.03;;;29.18;34.79
62011;BME280;47967;51.756;10.174;2022-07-03T15:29:47;99689.41;;;29.21;34.82
62011;BME280;47967;51.756;10.174;2022-07-03T15:33:50;99691.69;;;29.19;34.76
62011;BME280;47967;51.756;10.174;2022-07-03T15:38:03;99686.44;;;28.74;35.95
62011;BME280;47967;51.756;10.174;2022-07-03T15:42:13;99676.97;;;28.84;35.43
62011;BME280;47967;51.756;10.174;2022-07-03T15:46:23;99680.44;;;29.42;34.51
62011;BME280;47967;51.756;10.174;2022-07-03T15:50:35;99680.44;;;29.33;34.56
62011;BME280;47967;51.756;10.174;2022-07-03T15:54:52;99679.69;;;29.80;34.20
62011;BME280;47967;51.756;10.174;2022-07-03T15:59:01;99670.84;;;29.87;33.93
62011;BME280;47967;51.756;10.174;2022-07-03T16:03:21;99680.13;;;29.35;35.17
62011;BME280;47967;51.756;10.174;2022-07-03T16:07:28;99682.69;;;28.96;35.58
62011;BME280;47967;51.756;10.174;2022-07-03T16:11:33;99685.22;;;28.49;36.04
62011;BME280;47967;51.756;10.174;2022-07-03T16:15:40;99690.50;;;28.10;36.68
62011;BME280;47967;51.756;10.174;2022-07-03T16:19:47;99685.75;;;28.10;37.44
62011;BME280;47967;51.756;10.174;2022-07-03T16:23:50;99692.00;;;27.93;37.97
62011;BME280;47967;51.756;10.174;2022-07-03T16:27:53;99700.88;;;27.50;38.29
62011;BME280;47967;51.756;10.174;2022-07-03T16:32:01;99711.09;;;27.04;39.05
62011;BME280;47967;51.756;10.174;2022-07-03T16:36:08;99698.72;;;26.88;40.15
62011;BME280;47967;51.756;10.174;2022-07-03T16:40:17;99702.53;;;26.78;39.31
62011;BME280;47967;51.756;10.174;2022-07-03T16:44:20;99700.28;;;26.66;39.44
62011;BME280;47967;51.756;10.174;2022-07-03T16:48:35;99707.47;;;26.81;39.09
62011;BME280;47967;51.756;10.174;2022-07-03T16:52:43;99699.44;;;26.93;39.26
62011;BME280;47967;51.756;10.174;2022-07-03T16:56:48;99693.53;;;27.77;38.10
62011;BME280;47967;51.756;10.174;2022-07-03T17:00:51;99690.13;;;28.52;37.38
62011;BME280;47967;51.756;10.174;2022-07-03T17:04:59;99693.88;;;29.96;34.88
62011;BME280;47967;51.756;10.174;2022-07-03T17:09:04;99695.63;;;30.10;34.22
62011;BME280;47967;51.756;10.174;2022-07-03T17:13:07;99706.81;;;30.31;34.09
62011;BME280;47967;51.756;10.174;2022-07-03T17:17:12;99704.16;;;30.43;33.92
62011;BME280;47967;51.756;10.174;2022-07-03T17:21:22;99710.00;;;30.21;33.78
62011;BME280;47967;51.756;10.174;2022-07-03T17:25:27;99694.00;;;29.35;34.88
62011;BME280;47967;51.756;10.174;2022-07-03T17:29:38;99692.84;;;28.34;36.55
62011;BME280;47967;51.756;10.174;2022-07-03T17:33:49;99700.50;;;28.86;35.41
62011;BME280;47967;51.756;10.174;2022-07-03T17:37:56;99702.34;;;29.35;35.18
62011;BME280;47967;51.756;10.174;2022-07-03T17:41:59;99698.25;;;29.32;35.08
62011;BME280;47967;51.756;10.174;2022-07-03T17:46:02;99706.91;;;28.96;35.60
62011;BME280;47967;51.756;10.174;2022-07-03T17:50:06;99695.31;;;29.37;35.06
62011;BME280;47967;51.756;10.174;2022-07-03T17:54:10;99694.81;;;29.35;35.48
62011;BME280;47967;51.756;10.174;2022-07-03T17:58:13;99690.38;;;28.82;36.39
62011;BME280;47967;51.756;10.174;2022-07-03T18:02:16;99696.38;;;27.86;37.73
62011;BME280;47967;51.756;10.174;2022-07-03T18:06:20;99704.69;;;27.17;39.08
62011;BME280;47967;51.756;10.174;2022-07-03T18:10:31;99705.06;;;26.74;39.95
62011;BME280;47967;51.756;10.174;2022-07-03T18:14:38;99703.69;;;26.35;41.14
62011;BME280;47967;51.756;10.174;2022-07-03T18:18:43;99713.84;;;25.93;42.01
62011;BME280;47967;51.756;10.174;2022-07-03T18:22:46;99714.59;;;25.65;43.23
62011;BME280;47967;51.756;10.174;2022-07-03T18:26:53;99701.97;;;25.45;43.71
62011;BME280;47967;51.756;10.174;2022-07-03T18:30:58;99710.81;;;25.23;44.64
62011;BME280;47967;51.756;10.174;2022-07-03T18:35:03;99720.34;;;24.98;45.99
62011;BME280;47967;51.756;10.174;2022-07-03T18:39:11;99730.16;;;24.85;48.24
62011;BME280;47967;51.756;10.174;2022-07-03T18:43:16;99725.94;;;24.44;49.54
62011;BME280;47967;51.756;10.174;2022-07-03T18:47:18;99733.16;;;23.52;51.45
62011;BME280;47967;51.756;10.174;2022-07-03T18:51:23;99725.38;;;23.59;50.63
62011;BME280;47967;51.756;10.174;2022-07-03T18:55:31;99726.88;;;23.75;49.52
62011;BME280;47967;51.756;10.174;2022-07-03T18:59:46;99730.31;;;23.62;50.96
62011;BME280;47967;51.756;10.174;2022-07-03T19:03:53;99734.78;;;23.18;49.32
62011;BME280;47967;51.756;10.174;2022-07-03T19:08:02;99745.16;;;23.26;47.84
62011;BME280;47967;51.756;10.174;2022-07-03T19:12:08;99761.41;;;23.28;47.98
62011;BME280;47967;51.756;10.174;2022-07-03T19:16:15;99766.94;;;23.28;47.85
62011;BME280;47967;51.756;10.174;2022-07-03T19:20:18;99772.50;;;23.07;49.42
62011;BME280;47967;51.756;10.174;2022-07-03T19:24:21;99801.31;;;22.60;51.37
62011;BME280;47967;51.756;10.174;2022-07-03T19:28:23;99811.81;;;22.06;52.49
62011;BME280;47967;51.756;10.174;2022-07-03T19:32:27;99801.66;;;21.75;52.68
62011;BME280;47967;51.756;10.174;2022-07-03T19:36:30;99807.91;;;21.40;54.03
62011;BME280;47967;51.756;10.174;2022-07-03T19:40:32;99798.19;;;21.11;55.13
62011;BME280;47967;51.756;10.174;2022-07-03T19:44:35;99807.22;;;21.02;55.52
62011;BME280;47967;51.756;10.174;2022-07-03T19:48:40;99803.88;;;20.89;56.15
62011;BME280;47967;51.756;10.174;2022-07-03T19:52:44;99810.41;;;20.73;56.60
62011;BME280;47967;51.756;10.174;2022-07-03T19:56:46;99820.75;;;20.66;56.82
62011;BME280;47967;51.756;10.174;2022-07-03T20:00:49;99834.97;;;20.57;57.25
62011;BME280;47967;51.756;10.174;2022-07-03T20:04:53;99840.59;;;20.40;57.65
62011;BME280;47967;51.756;10.174;2022-07-03T20:08:56;99852.81;;;20.22;59.09
62011;BME280;47967;51.756;10.174;2022-07-03T20:12:58;99859.19;;;20.00;59.86
62011;BME280;47967;51.756;10.174;2022-07-03T20:17:01;99849.44;;;19.82;61.16
62011;BME280;47967;51.756;10.174;2022-07-03T20:21:05;99847.31;;;19.62;62.54
62011;BME280;47967;51.756;10.174;2022-07-03T20:25:08;99841.41;;;19.43;63.67
62011;BME280;47967;51.756;10.174;2022-07-03T20:29:11;99853.50;;;19.25;64.03
62011;BME280;47967;51.756;10.174;2022-07-03T20:33:13;99862.97;;;19.17;64.22
62011;BME280;47967;51.756;10.174;2022-07-03T20:37:17;99869.91;;;19.25;63.95
62011;BME280;47967;51.756;10.174;2022-07-03T20:41:21;99874.22;;;19.21;64.06
62011;BME280;47967;51.756;10.174;2022-07-03T20:45:24;99877.34;;;19.08;64.75
62011;BME280;47967;51.756;10.174;2022-07-03T20:49:27;99887.56;;;18.95;65.40
62011;BME280;47967;51.756;10.174;2022-07-03T20:53:31;99884.28;;;18.76;65.76
62011;BME280;47967;51.756;10.174;2022-07-03T20:57:34;99889.94;;;18.52;66.59
62011;BME280;47967;51.756;10.174;2022-07-03T21:01:37;99902.53;;;18.19;67.79
62011;BME280;47967;51.756;10.174;2022-07-03T21:05:40;99893.91;;;17.82;69.67
62011;BME280;47967;51.756;10.174;2022-07-03T21:09:43;99906.88;;;17.74;70.17
62011;BME280;47967;51.756;10.174;2022-07-03T21:13:47;99906.97;;;17.80;70.22
62011;BME280;47967;51.756;10.174;2022-07-03T21:17:50;99910.97;;;17.89;69.65
62011;BME280;47967;51.756;10.174;2022-07-03T21:21:53;99922.28;;;17.81;70.16
62011;BME280;47967;51.756;10.174;2022-07-03T21:25:57;99923.03;;;17.76;70.56
62011;BME280;47967;51.756;10.174;2022-07-03T21:29:59;99938.00;;;18.02;69.78